createdAt,value
2023-05-19T00:02:00.283Z,12.10
2023-05-19T00:04:28.448Z,12.02
2023-05-19T00:06:59.164Z,11.98
2023-05-19T00:09:27.263Z,11.98
2023-05-19T00:11:56.603Z,11.97
2023-05-19T00:14:24.492Z,12.08
2023-05-19T00:16:53.028Z,11.97
2023-05-19T00:19:22.420Z,11.98
2023-05-19T00:21:49.996Z,11.94
2023-05-19T00:24:17.396Z,11.90
2023-05-19T00:26:44.794Z,11.93
2023-05-19T00:29:13.266Z,11.91
2023-05-19T00:31:40.972Z,11.89
2023-05-19T00:34:09.994Z,11.83
2023-05-19T00:36:38.852Z,11.85
2023-05-19T00:39:06.374Z,11.83
2023-05-19T00:41:33.872Z,11.80
2023-05-19T00:44:01.330Z,11.79
2023-05-19T00:46:30.307Z,11.84
2023-05-19T00:48:57.946Z,11.81
2023-05-19T00:51:27.436Z,11.81
2023-05-19T00:53:56.639Z,11.77
2023-05-19T00:56:24.164Z,11.76
2023-05-19T00:58:52.195Z,11.74
2023-05-19T01:01:21.602Z,11.72
2023-05-19T01:03:51.331Z,11.68
2023-05-19T01:06:22.091Z,11.66
2023-05-19T01:08:51.611Z,11.66
2023-05-19T01:11:21.445Z,11.63
2023-05-19T01:13:49.148Z,11.66
2023-05-19T01:16:21.378Z,11.62
2023-05-19T01:18:56.908Z,11.57
2023-05-19T01:21:58.356Z,11.54
2023-05-19T01:25:17.650Z,11.52
2023-05-19T01:28:16.014Z,11.49
2023-05-19T01:30:52.054Z,11.43
2023-05-19T01:33:22.291Z,11.46
2023-05-19T01:35:51.017Z,11.43
2023-05-19T01:38:20.406Z,11.42
2023-05-19T01:40:50.296Z,11.35
2023-05-19T01:43:20.811Z,11.28
2023-05-19T01:45:51.158Z,11.22
2023-05-19T01:48:19.487Z,11.23
2023-05-19T01:50:47.251Z,11.24
2023-05-19T01:53:16.207Z,11.21
2023-05-19T01:55:47.944Z,11.15
2023-05-19T01:58:20.858Z,11.10
2023-05-19T02:00:56.932Z,11.06
2023-05-19T02:03:42.615Z,11.03
2023-05-19T02:06:19.861Z,10.96
2023-05-19T02:08:57.145Z,10.96
2023-05-19T02:11:36.381Z,10.94
2023-05-19T02:14:12.386Z,10.95
2023-05-19T02:16:45.256Z,10.93
2023-05-19T02:19:21.151Z,10.93
2023-05-19T02:21:48.598Z,10.96
2023-05-19T02:24:16.449Z,10.92
2023-05-19T02:26:44.001Z,10.86
2023-05-19T02:29:11.673Z,10.86
2023-05-19T02:31:39.189Z,10.86
2023-05-19T02:34:08.709Z,10.87
2023-05-19T02:36:40.938Z,10.82
2023-05-19T02:39:09.489Z,10.88
2023-05-19T02:41:37.276Z,10.94
2023-05-19T02:44:05.047Z,10.91
2023-05-19T02:46:33.338Z,10.90
2023-05-19T02:49:01.012Z,10.90
2023-05-19T02:51:29.839Z,10.94
2023-05-19T02:53:57.624Z,10.97
2023-05-19T02:56:25.027Z,11.02
2023-05-19T02:58:52.843Z,11.01
2023-05-19T03:01:25.119Z,10.99
2023-05-19T03:03:52.740Z,11.01
2023-05-19T03:06:23.312Z,11.04
2023-05-19T03:08:52.208Z,11.06
2023-05-19T03:11:19.729Z,11.06
2023-05-19T03:13:47.159Z,11.05
2023-05-19T03:16:14.705Z,11.07
2023-05-19T03:18:43.347Z,10.99
2023-05-19T03:21:10.704Z,10.99
2023-05-19T03:23:38.377Z,11.00
2023-05-19T03:26:07.219Z,11.03
2023-05-19T03:28:34.730Z,11.00
2023-05-19T03:31:03.667Z,11.02
2023-05-19T03:33:36.531Z,10.92
2023-05-19T03:36:04.609Z,10.96
2023-05-19T03:38:36.221Z,10.93
2023-05-19T03:41:04.146Z,11.00
2023-05-19T03:43:33.438Z,10.97
2023-05-19T03:46:06.513Z,10.96
2023-05-19T03:48:51.377Z,10.96
2023-05-19T03:51:56.831Z,10.91
2023-05-19T03:54:36.542Z,10.87
2023-05-19T03:57:05.093Z,10.88
2023-05-19T03:59:35.278Z,10.86
2023-05-19T04:02:04.829Z,10.80
2023-05-19T04:04:32.668Z,10.81
2023-05-19T04:07:00.229Z,10.73
2023-05-19T04:09:27.924Z,10.78
2023-05-19T04:11:55.949Z,10.80
2023-05-19T04:14:25.091Z,10.79
2023-05-19T04:16:54.258Z,10.86
2023-05-19T04:19:21.904Z,10.84
2023-05-19T04:21:49.546Z,10.89
2023-05-19T04:24:17.133Z,10.84
2023-05-19T04:26:47.129Z,10.87
2023-05-19T04:29:17.888Z,10.91
2023-05-19T04:31:45.870Z,10.95
2023-05-19T04:34:14.932Z,10.97
2023-05-19T04:36:42.502Z,11.01
2023-05-19T04:39:12.254Z,11.04
2023-05-19T04:41:44.640Z,11.06
2023-05-19T04:44:13.568Z,11.09
2023-05-19T04:46:42.715Z,11.12
2023-05-19T04:49:12.548Z,11.13
2023-05-19T04:51:42.309Z,11.14
2023-05-19T04:54:10.310Z,11.25
2023-05-19T04:56:37.968Z,11.32
2023-05-19T04:59:06.871Z,11.32
2023-05-19T05:01:34.647Z,11.38
2023-05-19T05:04:02.642Z,11.42
2023-05-19T05:06:31.611Z,11.48
2023-05-19T05:09:00.800Z,11.45
2023-05-19T05:11:29.115Z,11.52
2023-05-19T05:13:58.317Z,11.59
2023-05-19T05:16:28.230Z,11.60
2023-05-19T05:18:58.018Z,11.61
2023-05-19T05:21:26.153Z,11.63
2023-05-19T05:23:54.200Z,11.66
2023-05-19T05:26:30.469Z,11.36
2023-05-19T05:28:57.979Z,11.40
2023-05-19T05:31:25.935Z,11.35
2023-05-19T05:33:53.920Z,11.35
2023-05-19T05:36:25.109Z,11.39
2023-05-19T05:38:52.673Z,11.40
2023-05-19T05:41:20.174Z,11.43
2023-05-19T05:43:50.470Z,11.31
2023-05-19T05:46:18.705Z,11.33
2023-05-19T05:48:47.051Z,11.23
2023-05-19T05:51:15.039Z,11.35
2023-05-19T05:53:44.876Z,11.32
2023-05-19T05:56:14.971Z,11.25
2023-05-19T05:58:50.733Z,11.26
2023-05-19T06:01:18.314Z,11.39
2023-05-19T06:03:46.067Z,11.52
2023-05-19T06:06:18.589Z,11.58
2023-05-19T06:08:46.253Z,11.70
2023-05-19T06:11:13.809Z,11.74
2023-05-19T06:13:42.351Z,11.64
2023-05-19T06:16:16.533Z,11.66
2023-05-19T06:18:46.871Z,11.72
2023-05-19T06:21:14.583Z,11.88
2023-05-19T06:23:43.388Z,11.68
2023-05-19T06:26:11.995Z,11.65
2023-05-19T06:28:39.580Z,11.77
2023-05-19T06:31:07.141Z,11.80
2023-05-19T06:33:50.341Z,12.03
2023-05-19T06:36:17.885Z,12.18
2023-05-19T06:38:46.245Z,12.38
2023-05-19T06:41:13.741Z,12.41
2023-05-19T06:43:42.202Z,12.32
2023-05-19T06:46:14.473Z,12.33
2023-05-19T06:48:44.286Z,12.31
2023-05-19T06:51:15.398Z,12.51
2023-05-19T06:53:42.900Z,12.59
2023-05-19T06:56:10.762Z,12.42
2023-05-19T06:58:40.513Z,12.48
2023-05-19T07:01:08.055Z,12.73
2023-05-19T07:03:42.502Z,12.78
2023-05-19T07:06:13.054Z,12.52
2023-05-19T07:08:40.660Z,12.42
2023-05-19T07:11:08.953Z,12.41
2023-05-19T07:13:36.338Z,12.49
2023-05-19T07:16:04.877Z,12.56
2023-05-19T07:18:32.641Z,12.50
2023-05-19T07:21:00.237Z,12.46
2023-05-19T07:23:29.330Z,12.57
2023-05-19T07:25:57.088Z,12.63
2023-05-19T07:28:24.793Z,12.75
2023-05-19T07:30:53.201Z,12.65
2023-05-19T07:33:20.579Z,12.79
2023-05-19T07:35:48.704Z,12.79
2023-05-19T07:38:16.182Z,12.89
2023-05-19T07:40:45.023Z,12.97
2023-05-19T07:43:12.479Z,12.80
2023-05-19T07:45:40.152Z,12.87
2023-05-19T07:48:07.912Z,12.88
2023-05-19T07:50:35.812Z,12.93
2023-05-19T07:53:03.304Z,13.03
2023-05-19T07:55:30.878Z,13.05
2023-05-19T07:57:59.696Z,13.01
2023-05-19T08:00:27.567Z,13.10
2023-05-19T08:02:56.925Z,13.15
2023-05-19T08:05:26.031Z,13.25
2023-05-19T08:07:53.555Z,13.43
2023-05-19T08:10:21.157Z,13.36
2023-05-19T08:12:48.662Z,13.37
2023-05-19T08:15:18.931Z,13.46
2023-05-19T08:17:46.526Z,13.68
2023-05-19T08:20:15.105Z,13.49
2023-05-19T08:22:42.595Z,13.42
2023-05-19T08:25:10.342Z,13.63
2023-05-19T08:27:37.879Z,14.10
2023-05-19T08:30:07.055Z,14.13
2023-05-19T08:32:36.385Z,13.93
2023-05-19T08:35:04.362Z,14.30
2023-05-19T08:37:34.018Z,14.42
2023-05-19T08:40:01.657Z,14.16
2023-05-19T08:42:29.266Z,14.24
2023-05-19T08:44:56.737Z,14.04
2023-05-19T08:47:25.175Z,13.87
2023-05-19T08:49:59.285Z,13.86
2023-05-19T08:52:33.051Z,13.54
2023-05-19T08:55:04.600Z,13.92
2023-05-19T08:57:32.948Z,13.98
2023-05-19T09:00:01.123Z,14.35
2023-05-19T09:02:29.712Z,14.58
2023-05-19T09:04:58.565Z,14.90
2023-05-19T09:07:27.354Z,14.94
2023-05-19T09:09:54.813Z,15.11
2023-05-19T09:12:22.707Z,14.97
2023-05-19T09:14:50.482Z,14.99
2023-05-19T09:17:18.930Z,14.91
2023-05-19T09:19:49.300Z,14.81
2023-05-19T09:22:21.180Z,14.77
2023-05-19T09:24:49.251Z,14.84
2023-05-19T09:27:22.522Z,14.86
2023-05-19T09:29:50.918Z,14.94
2023-05-19T09:32:25.401Z,14.98
2023-05-19T09:34:53.565Z,14.86
2023-05-19T09:37:24.587Z,14.76
2023-05-19T09:39:53.168Z,14.64
2023-05-19T09:42:25.074Z,14.54
2023-05-19T09:44:59.322Z,14.56
2023-05-19T09:47:27.977Z,14.69
2023-05-19T09:49:55.526Z,14.80
2023-05-19T09:52:24.491Z,14.88
2023-05-19T09:54:55.039Z,14.83
2023-05-19T09:57:27.053Z,14.81
2023-05-19T09:59:56.901Z,14.59
2023-05-19T10:02:26.469Z,14.56
2023-05-19T10:04:55.120Z,14.56
2023-05-19T10:07:24.733Z,14.62
2023-05-19T10:09:55.035Z,14.64
2023-05-19T10:12:26.459Z,14.58
2023-05-19T10:15:00.356Z,14.58
2023-05-19T10:17:28.534Z,14.55
2023-05-19T10:19:56.092Z,14.72
2023-05-19T10:22:25.014Z,14.81
2023-05-19T10:24:52.562Z,14.79
2023-05-19T10:27:20.698Z,14.79
2023-05-19T10:29:50.730Z,14.69
2023-05-19T10:32:22.528Z,14.46
2023-05-19T10:35:24.360Z,14.45
2023-05-19T10:38:04.413Z,14.36
2023-05-19T10:40:37.013Z,14.22
2023-05-19T10:43:22.076Z,14.20
2023-05-19T10:45:52.656Z,14.05
2023-05-19T10:48:21.615Z,14.03
2023-05-19T10:50:52.978Z,14.09
2023-05-19T10:53:22.801Z,14.32
2023-05-19T10:55:52.707Z,14.33
2023-05-19T10:58:36.514Z,14.55
2023-05-19T11:01:08.191Z,14.61
2023-05-19T11:03:47.190Z,14.69
2023-05-19T11:06:24.419Z,14.70
2023-05-19T11:08:58.781Z,14.74
2023-05-19T11:11:27.334Z,14.69
2023-05-19T11:13:56.372Z,14.55
2023-05-19T11:16:28.844Z,14.55
2023-05-19T11:18:58.724Z,14.48
2023-05-19T11:21:41.693Z,14.52
2023-05-19T11:24:10.877Z,14.48
2023-05-19T11:26:43.204Z,14.40
2023-05-19T11:29:11.565Z,14.42
2023-05-19T11:31:39.597Z,14.44
2023-05-19T11:34:08.113Z,14.54
2023-05-19T11:36:36.883Z,14.65
2023-05-19T11:39:05.972Z,14.72
2023-05-19T11:41:39.560Z,14.69
2023-05-19T11:44:10.139Z,14.76
2023-05-19T11:46:38.077Z,14.85
2023-05-19T11:49:06.162Z,14.78
2023-05-19T11:51:33.623Z,14.76
2023-05-19T11:54:03.201Z,14.70
2023-05-19T11:56:35.784Z,14.81
2023-05-19T11:59:03.199Z,14.79
2023-05-19T12:01:33.504Z,14.82
2023-05-19T12:04:01.112Z,14.72
2023-05-19T12:06:29.281Z,14.83
2023-05-19T12:08:56.949Z,14.81
2023-05-19T12:11:24.553Z,14.88
2023-05-19T12:13:55.312Z,14.94
2023-05-19T12:16:23.053Z,15.08
2023-05-19T12:18:50.617Z,15.20
2023-05-19T12:21:18.233Z,15.17
2023-05-19T12:23:45.877Z,15.05
2023-05-19T12:26:13.913Z,14.77
2023-05-19T12:28:41.543Z,14.74
2023-05-19T12:31:11.739Z,14.75
2023-05-19T12:33:39.547Z,14.87
2023-05-19T12:36:08.611Z,14.69
2023-05-19T12:38:39.546Z,15.06
2023-05-19T12:41:07.097Z,15.07
2023-05-19T12:43:35.075Z,15.14
2023-05-19T12:46:11.408Z,15.05
2023-05-19T12:48:41.612Z,15.10
2023-05-19T12:51:09.922Z,15.16
2023-05-19T12:53:38.008Z,14.95
2023-05-19T12:56:12.822Z,14.87
2023-05-19T12:58:40.692Z,14.84
2023-05-19T13:01:15.151Z,14.86
2023-05-19T13:03:44.646Z,14.96
2023-05-19T13:06:12.137Z,15.02
2023-05-19T13:08:41.822Z,15.16
2023-05-19T13:11:09.227Z,15.21
2023-05-19T13:13:37.545Z,15.17
2023-05-19T13:16:05.909Z,15.28
2023-05-19T13:18:35.280Z,15.27
2023-05-19T13:21:05.736Z,14.97
2023-05-19T13:23:34.972Z,14.93
2023-05-19T13:26:04.933Z,14.63
2023-05-19T13:28:32.614Z,14.87
2023-05-19T13:31:00.177Z,14.92
2023-05-19T13:33:27.642Z,15.01
2023-05-19T13:35:55.165Z,15.01
2023-05-19T13:38:23.922Z,15.20
2023-05-19T13:40:51.380Z,15.18
2023-05-19T13:43:18.777Z,15.23
2023-05-19T13:45:46.500Z,15.40
2023-05-19T13:48:14.665Z,15.37
2023-05-19T13:50:42.515Z,15.00
2023-05-19T13:53:11.426Z,15.09
2023-05-19T13:55:40.644Z,14.91
2023-05-19T13:58:10.809Z,14.65
2023-05-19T14:00:38.302Z,14.72
2023-05-19T14:03:05.890Z,14.69
2023-05-19T14:05:33.554Z,14.59
2023-05-19T14:08:01.234Z,14.68
2023-05-19T14:10:28.947Z,14.74
2023-05-19T14:13:29.087Z,14.94
2023-05-19T14:15:47.379Z,15.17
2023-05-19T14:18:16.007Z,15.31
2023-05-19T14:20:43.468Z,15.41
2023-05-19T14:23:11.120Z,15.28
2023-05-19T14:25:38.528Z,15.27
2023-05-19T14:28:07.524Z,15.31
2023-05-19T14:30:35.293Z,15.19
2023-05-19T14:33:03.261Z,15.33
2023-05-19T14:35:30.928Z,15.18
2023-05-19T14:37:58.409Z,15.16
2023-05-19T14:40:25.883Z,15.36
2023-05-19T14:42:53.364Z,15.64
2023-05-19T14:45:22.242Z,15.84
2023-05-19T14:47:49.871Z,15.84
2023-05-19T14:50:17.442Z,15.75
2023-05-19T14:52:44.881Z,15.68
2023-05-19T14:55:12.392Z,15.58
2023-05-19T14:57:39.881Z,15.44
2023-05-19T15:00:11.143Z,15.38
2023-05-19T15:02:40.091Z,15.21
2023-05-19T15:05:08.325Z,15.15
2023-05-19T15:07:36.054Z,15.21
2023-05-19T15:10:04.220Z,15.32
2023-05-19T15:12:31.683Z,15.32
2023-05-19T15:14:59.615Z,15.44
2023-05-19T15:17:27.085Z,15.57
2023-05-19T15:19:55.910Z,15.71
2023-05-19T15:22:23.376Z,15.75
2023-05-19T15:24:50.964Z,15.63
2023-05-19T15:27:18.525Z,15.73
2023-05-19T15:29:46.014Z,15.77
2023-05-19T15:32:13.617Z,15.88
2023-05-19T15:34:41.085Z,15.51
2023-05-19T15:37:10.101Z,15.66
2023-05-19T15:39:37.640Z,15.69
2023-05-19T15:42:05.419Z,15.84
2023-05-19T15:44:32.836Z,15.96
2023-05-19T15:47:00.499Z,15.92
2023-05-19T15:49:27.972Z,15.82
2023-05-19T15:51:55.571Z,15.85
2023-05-19T15:54:25.230Z,15.72
2023-05-19T15:56:52.683Z,15.84
2023-05-19T15:59:20.247Z,16.03
2023-05-19T16:01:48.229Z,16.32
2023-05-19T16:04:17.848Z,16.57
2023-05-19T16:06:45.552Z,16.68
2023-05-19T16:09:13.180Z,16.63
2023-05-19T16:11:41.927Z,16.81
2023-05-19T16:14:09.441Z,17.22
2023-05-19T16:16:39.587Z,17.23
2023-05-19T16:19:07.194Z,17.28
2023-05-19T16:21:34.804Z,17.49
2023-05-19T16:24:02.447Z,17.60
2023-05-19T16:26:30.189Z,17.57
2023-05-19T16:28:59.052Z,17.53
2023-05-19T16:31:26.660Z,18.20
2023-05-19T16:33:54.141Z,18.86
2023-05-19T16:36:22.827Z,19.16
2023-05-19T16:38:50.409Z,19.82
2023-05-19T16:41:17.966Z,20.31
2023-05-19T16:43:45.554Z,20.59
2023-05-19T16:46:14.425Z,20.78
2023-05-19T16:48:41.932Z,21.18
2023-05-19T16:51:09.545Z,21.31
2023-05-19T16:53:37.142Z,21.30
2023-05-19T16:56:05.209Z,21.54
2023-05-19T16:58:32.725Z,21.23
2023-05-19T17:01:00.359Z,21.24
2023-05-19T17:03:30.987Z,21.49
2023-05-19T17:05:58.601Z,21.49
2023-05-19T17:08:26.211Z,21.33
2023-05-19T17:10:53.664Z,21.43
2023-05-19T17:13:21.372Z,21.74
2023-05-19T17:15:52.492Z,21.17
2023-05-19T17:18:19.955Z,21.46
2023-05-19T17:20:48.833Z,21.38
2023-05-19T17:23:16.853Z,21.32
2023-05-19T17:25:44.169Z,21.30
2023-05-19T17:28:11.687Z,21.23
2023-05-19T17:30:40.146Z,21.29
2023-05-19T17:33:07.760Z,21.49
2023-05-19T17:35:35.365Z,21.40
2023-05-19T17:38:04.192Z,21.06
2023-05-19T17:40:32.307Z,19.88
2023-05-19T17:42:59.995Z,19.90
2023-05-19T17:45:27.686Z,19.73
2023-05-19T17:47:55.174Z,19.63
2023-05-19T17:50:22.650Z,19.20
2023-05-19T17:52:50.895Z,19.03
2023-05-19T17:55:20.951Z,18.98
2023-05-19T17:57:49.306Z,18.90
2023-05-19T18:00:17.485Z,18.64
2023-05-19T18:02:45.988Z,18.25
2023-05-19T18:05:14.898Z,18.11
2023-05-19T18:07:42.715Z,17.94
2023-05-19T18:10:11.821Z,17.93
2023-05-19T18:12:41.064Z,17.85
2023-05-19T18:15:09.171Z,17.70
2023-05-19T18:17:36.879Z,17.64
2023-05-19T18:20:05.299Z,17.53
2023-05-19T18:22:32.837Z,17.52
2023-05-19T18:25:00.296Z,17.38
2023-05-19T18:27:27.905Z,17.35
2023-05-19T18:29:56.764Z,17.27
2023-05-19T18:32:24.292Z,17.15
2023-05-19T18:34:52.092Z,16.99
2023-05-19T18:37:19.713Z,16.87
2023-05-19T18:39:47.208Z,16.70
2023-05-19T18:42:14.738Z,16.55
2023-05-19T18:44:46.683Z,16.30
2023-05-19T18:47:15.902Z,16.04
2023-05-19T18:49:43.705Z,15.93
2023-05-19T18:52:11.647Z,15.92
2023-05-19T18:54:40.507Z,15.80
2023-05-19T18:57:08.385Z,15.58
2023-05-19T18:59:35.954Z,15.31
2023-05-19T19:02:03.549Z,15.08
2023-05-19T19:04:32.918Z,14.94
2023-05-19T19:07:01.260Z,14.87
2023-05-19T19:09:28.768Z,14.82
2023-05-19T19:11:56.311Z,14.81
2023-05-19T19:14:23.914Z,14.71
2023-05-19T19:16:51.468Z,14.70
2023-05-19T19:19:19.153Z,14.59
2023-05-19T19:21:48.386Z,14.46
2023-05-19T19:24:16.117Z,14.39
2023-05-19T19:26:43.848Z,14.36
2023-05-19T19:29:11.384Z,14.35
2023-05-19T19:31:39.507Z,14.24
2023-05-19T19:34:09.196Z,14.23
2023-05-19T19:36:36.765Z,14.21
2023-05-19T19:39:05.546Z,14.24
2023-05-19T19:41:34.749Z,14.17
2023-05-19T19:44:02.367Z,14.21
2023-05-19T19:46:29.933Z,14.12
2023-05-19T19:49:00.704Z,14.02
2023-05-19T19:51:28.481Z,13.93
2023-05-19T19:53:55.948Z,13.84
2023-05-19T19:56:26.182Z,13.83
2023-05-19T19:58:55.234Z,13.79
2023-05-19T20:01:27.246Z,13.67
2023-05-19T20:03:55.831Z,13.67
2023-05-19T20:06:23.647Z,13.62
2023-05-19T20:08:51.236Z,13.62
2023-05-19T20:11:19.897Z,13.61
2023-05-19T20:13:48.778Z,13.57
2023-05-19T20:16:16.324Z,13.54
2023-05-19T20:18:43.892Z,13.54
2023-05-19T20:21:11.520Z,13.51
2023-05-19T20:23:40.627Z,13.51
2023-05-19T20:26:13.204Z,13.40
2023-05-19T20:28:41.582Z,13.43
2023-05-19T20:31:10.749Z,13.48
2023-05-19T20:33:38.217Z,13.50
2023-05-19T20:36:07.124Z,13.40
2023-05-19T20:38:34.639Z,13.42
2023-05-19T20:41:02.226Z,13.37
2023-05-19T20:43:29.713Z,13.42
2023-05-19T20:45:57.205Z,13.42
2023-05-19T20:48:26.055Z,13.42
2023-05-19T20:50:54.409Z,13.43
2023-05-19T20:53:22.037Z,13.39
2023-05-19T20:55:49.560Z,13.33
2023-05-19T20:58:17.308Z,13.31
2023-05-19T21:00:44.844Z,13.30
2023-05-19T21:03:12.365Z,13.26
2023-05-19T21:05:41.220Z,13.26
2023-05-19T21:08:12.882Z,13.24
2023-05-19T21:10:40.958Z,13.20
2023-05-19T21:13:08.548Z,13.21
2023-05-19T21:15:36.117Z,13.14
2023-05-19T21:18:03.879Z,13.15
2023-05-19T21:20:31.517Z,13.11
2023-05-19T21:23:00.687Z,13.05
2023-05-19T21:25:28.123Z,13.01
2023-05-19T21:27:56.114Z,13.00
2023-05-19T21:30:23.829Z,12.99
2023-05-19T21:32:51.427Z,13.01
2023-05-19T21:35:18.954Z,13.02
2023-05-19T21:37:46.499Z,13.04
2023-05-19T21:40:15.505Z,13.03
2023-05-19T21:42:42.977Z,13.06
2023-05-19T21:45:11.162Z,13.02
2023-05-19T21:47:38.633Z,12.98
2023-05-19T21:50:07.437Z,12.98
2023-05-19T21:52:36.340Z,12.99
2023-05-19T21:55:04.356Z,12.97
2023-05-19T21:57:33.283Z,13.01
2023-05-19T22:00:00.809Z,13.02
2023-05-19T22:02:28.374Z,12.99
2023-05-19T22:04:56.140Z,12.98
2023-05-19T22:07:26.958Z,12.98
2023-05-19T22:09:54.505Z,12.94
2023-05-19T22:12:23.062Z,12.91
2023-05-19T22:14:51.893Z,12.89
2023-05-19T22:17:19.317Z,12.89
2023-05-19T22:19:46.805Z,12.79
2023-05-19T22:22:14.841Z,12.83
2023-05-19T22:24:42.446Z,12.83
2023-05-19T22:27:10.006Z,12.83
2023-05-19T22:29:38.627Z,12.76
2023-05-19T22:32:17.957Z,12.73
2023-05-19T22:34:46.450Z,12.73
2023-05-19T22:37:14.025Z,12.69
2023-05-19T22:39:41.421Z,12.65
2023-05-19T22:42:09.026Z,12.66
2023-05-19T22:44:36.445Z,12.65
2023-05-19T22:47:04.157Z,12.63
2023-05-19T22:49:33.106Z,12.58
2023-05-19T22:52:00.939Z,12.56
2023-05-19T22:54:28.421Z,12.55
2023-05-19T22:56:55.943Z,12.55
2023-05-19T22:59:23.493Z,12.55
2023-05-19T23:01:51.018Z,12.50
2023-05-19T23:04:18.466Z,12.44
2023-05-19T23:06:47.529Z,12.38
2023-05-19T23:09:15.992Z,12.41
2023-05-19T23:11:43.260Z,12.40
2023-05-19T23:14:10.875Z,12.38
2023-05-19T23:19:06.539Z,12.37
2023-05-19T23:21:34.134Z,12.38
2023-05-19T23:24:03.152Z,12.33
2023-05-19T23:26:30.707Z,12.35
2023-05-19T23:28:58.167Z,12.33
2023-05-19T23:31:25.855Z,12.33
2023-05-19T23:33:54.196Z,12.30
2023-05-19T23:36:23.061Z,12.28
2023-05-19T23:38:50.969Z,12.28
2023-05-19T23:41:19.852Z,12.26
2023-05-19T23:43:47.366Z,12.20
2023-05-19T23:46:15.100Z,12.18
2023-05-19T23:48:42.593Z,12.14
2023-05-19T23:51:10.053Z,12.10
2023-05-19T23:53:37.647Z,11.98
2023-05-19T23:56:05.990Z,11.89
2023-05-19T23:58:34.842Z,11.88
